Latest Weather Observations for Point Perpendicular

IDN60801

Issued at 8:32 pm EST Tuesday 27 June 2017 (issued every 30 minutes, with the page automatically refreshed every 10 minutes)

About weather observations | Map of weather stations | Latest weather observations for NSW | Other Formats
Station Details ID: 068151 Name: POINT PERPENDICULAR AWS Lat: -35.09 Lon: 150.80 Height: 85.0 m
Data from the previous 72 hours. | See also: Recent months at Point Perpendicular
Date/Time
EST
Temp
°C
App
Temp
°C
Dew
Point
°C
Rel
Hum
%
Delta-T
°C
Wind Press
QNH
hPa
Press
MSL
hPa
Rain since
9am
mm
Dir  Spd
km/h
Gust
km/h
Spd
kts
Gust
kts
27/08:30pm 13.8 14.0 12.0 89 1.0 SW 2 4 1 2 1024.7 1024.6 0.0
27/08:00pm 13.5 12.9 10.3 81 1.7 NW 4 7 2 4 1024.6 1024.5 0.0
27/07:30pm 13.7 13.2 9.4 75 2.2 NNE 2 4 1 2 1024.7 1024.6 0.0
27/07:00pm 14.0 13.9 9.6 75 2.3 CALM 0 2 0 1 1024.7 1024.6 0.0
27/06:30pm 14.2 13.3 9.4 73 2.5 ESE 4 7 2 4 1024.6 1024.5 0.0
27/06:00pm 14.3 13.1 9.5 73 2.5 ESE 6 9 3 5 1024.3 1024.2 0.0
27/05:30pm 14.1 13.2 9.1 72 2.6 E 4 7 2 4 1024.4 1024.3 0.0
27/05:00pm 14.0 12.7 9.2 73 2.4 E 6 11 3 6 1024.3 1024.2 0.0
27/04:30pm 13.9 12.5 8.9 72 2.5 E 6 9 3 5 1024.3 1024.2 0.0
27/04:00pm 14.0 12.6 8.8 71 2.6 SE 6 11 3 6 1024.4 1024.3 0.0
27/03:30pm 14.1 12.7 8.9 71 2.6 SSE 6 11 3 6 1024.4 1024.3 0.0
27/03:00pm 14.4 13.4 8.8 69 2.8 S 4 6 2 3 1024.7 1024.6 0.0
27/02:30pm 14.4 13.0 8.8 69 2.8 SSE 6 9 3 5 1024.8 1024.8 0.0
27/02:00pm 14.7 13.1 8.9 68 2.9 SSE 7 11 4 6 1024.8 1024.8 0.0
27/01:30pm 14.2 12.5 8.2 67 3.0 S 7 11 4 6 1025.0 1025.0 0.0
27/01:00pm 15.0 13.6 8.7 66 3.2 SSE 6 11 3 6 1025.3 1025.3 0.0
27/12:30pm 14.3 12.6 8.3 67 3.0 S 7 13 4 7 1025.7 1025.7 0.0
27/12:00pm 14.5 12.0 8.2 66 3.1 SSE 11 15 6 8 1025.7 1025.7 0.0
27/11:30am 15.4 13.8 8.9 65 3.3 S 7 15 4 8 1026.3 1026.3 0.0
27/11:00am 14.6 12.9 8.5 67 3.1 S 7 13 4 7 1027.0 1027.0 0.0
27/10:30am 14.2 12.6 8.6 69 2.8 SSW 7 11 4 6 1027.1 1027.1 0.0
27/10:00am 13.8 12.8 9.0 73 2.4 W 4 11 2 6 1027.1 1027.1 0.0
27/09:30am 13.2 12.4 9.5 78 1.9 W 4 9 2 5 1027.1 1027.1 0.0
27/09:00am 12.1 11.5 8.9 81 1.6 W 2 7 1 4 1026.9 1026.9 -
27/08:30am 11.0 9.7 9.1 88 0.9 WNW 6 7 3 4 1026.8 1026.8 -
27/08:00am - - - - - WNW 6 7 3 4 1026.8 1026.8 -
27/07:30am - - - - - WNW 6 7 3 4 1026.7 1026.7 -
27/07:00am - - - - - W 2 6 1 3 1026.4 1026.4 0.0
27/06:30am 10.5 9.3 9.7 95 0.4 WNW 6 7 3 4 1026.5 1026.5 0.0
27/06:00am 12.1 11.1 10.2 88 1.0 WNW 6 9 3 5 1026.3 1026.3 0.0
27/05:30am 12.9 12.2 9.9 82 1.5 WSW 4 11 2 6 1025.8 1025.8 0.0
27/05:00am 12.4 11.8 10.3 87 1.1 W 4 9 2 5 1025.6 1025.6 0.0
27/04:30am 12.0 11.4 10.4 90 0.8 W 4 7 2 4 1025.6 1025.6 0.0
27/04:00am 11.3 11.1 10.4 94 0.5 W 2 6 1 3 1025.7 1025.7 0.0
27/03:30am 11.3 10.2 10.0 92 0.7 WNW 6 9 3 5 1025.6 1025.6 0.0
27/03:00am 13.1 12.2 9.2 77 2.0 WNW 4 9 2 5 1025.6 1025.6 0.0
27/02:30am 13.5 10.6 8.1 70 2.7 SSW 13 20 7 11 1025.4 1025.4 0.0
27/02:00am 13.4 9.8 8.3 71 2.5 SSW 17 26 9 14 1025.1 1025.1 0.0
27/01:30am 13.4 11.5 9.1 75 2.2 SW 9 17 5 9 1025.0 1025.0 0.0
27/01:00am 13.3 11.3 8.6 73 2.3 WSW 9 13 5 7 1025.4 1025.4 0.0
27/12:30am 13.7 13.0 8.5 71 2.6 W 2 4 1 2 1025.2 1025.2 0.0
27/12:00am 13.2 12.2 7.2 67 2.9 W 2 4 1 2 1025.3 1025.3 0.0
 
Date/Time
EST
Temp
°C
App
Temp
°C
Dew
Point
°C
Rel
Hum
%
Delta-T
°C
Wind Press
QNH
hPa
Press
MSL
hPa
Rain since
9am
mm
Dir  Spd
km/h
Gust
km/h
Spd
kts
Gust
kts
26/11:30pm 14.3 13.1 6.4 59 3.8 WNW 2 9 1 5 1025.6 1025.6 0.0
26/11:00pm 14.4 12.2 6.3 58 3.9 S 7 11 4 6 1025.8 1025.8 0.0
26/10:30pm 14.4 12.3 5.7 56 4.1 S 6 11 3 6 1025.6 1025.6 0.0
26/10:00pm 14.1 12.7 5.7 57 4.0 WNW 2 4 1 2 1025.2 1025.2 0.0
26/09:30pm 13.9 12.3 6.3 60 3.7 NW 4 6 2 3 1025.2 1025.2 0.0
26/09:00pm 13.3 12.2 6.9 65 3.1 W 2 4 1 2 1025.1 1025.1 0.0
26/08:30pm 14.4 12.3 5.7 56 4.1 SE 6 7 3 4 1025.1 1025.1 0.0
26/08:00pm 14.2 12.2 6.1 58 3.9 SE 6 11 3 6 1024.8 1024.8 0.0
26/07:30pm 13.9 11.6 5.5 57 4.0 SE 7 9 4 5 1024.4 1024.3 0.0
26/07:00pm 14.1 11.6 4.7 53 4.4 SSE 7 13 4 7 1024.0 1023.9 0.0
26/06:30pm 14.1 11.2 4.7 53 4.4 SE 9 15 5 8 1023.6 1023.5 0.0
26/06:00pm 14.1 11.2 4.7 53 4.4 SSE 9 15 5 8 1023.1 1023.1 0.0
26/05:30pm 14.0 11.1 4.9 54 4.3 SSE 9 17 5 9 1022.7 1022.7 0.0
26/05:00pm 14.3 10.4 3.2 47 5.0 S 13 19 7 10 1022.4 1022.4 0.0
26/04:30pm 14.4 11.8 4.4 51 4.6 S 7 15 4 8 1022.1 1022.1 0.0
26/04:00pm 14.9 11.4 3.7 47 5.1 S 11 17 6 9 1022.1 1022.1 0.0
26/03:30pm 15.2 12.2 4.3 48 5.1 SSE 9 17 5 9 1022.0 1022.0 0.0
26/03:00pm 15.3 11.9 4.1 47 5.2 SSE 11 19 6 10 1021.8 1021.8 0.0
26/02:30pm 15.6 12.1 3.4 44 5.6 S 11 19 6 10 1021.6 1021.6 0.0
26/02:00pm 15.5 12.2 4.3 47 5.2 S 11 19 6 10 1021.5 1021.5 0.0
26/01:30pm 15.5 12.2 4.8 49 5.0 S 11 17 6 9 1021.4 1021.4 0.0
26/01:00pm 15.6 12.2 4.0 46 5.4 S 11 19 6 10 1021.5 1021.5 0.0
26/12:30pm 15.6 13.1 3.7 45 5.5 WSW 6 15 3 8 1021.6 1021.6 0.0
26/12:00pm 15.1 12.9 6.4 56 4.2 WSW 7 13 4 7 1021.8 1021.8 0.0
26/11:30am 14.4 12.4 7.0 61 3.6 WSW 7 13 4 7 1022.0 1022.0 0.0
26/11:00am 14.3 12.9 7.4 63 3.4 WNW 4 9 2 5 1022.2 1022.2 0.0
26/10:30am 13.4 11.0 7.0 65 3.1 WNW 9 17 5 9 1022.2 1022.2 0.0
26/10:00am 13.0 10.3 7.2 68 2.8 NW 11 17 6 9 1022.1 1022.1 0.0
26/09:30am 12.4 10.3 6.7 68 2.7 WNW 7 15 4 8 1021.9 1021.9 0.0
26/09:00am 11.8 9.0 6.9 72 2.3 WNW 11 20 6 11 1021.5 1021.5 -
26/08:30am 11.4 8.2 6.9 74 2.2 WNW 13 20 7 11 1021.1 1021.1 -
26/08:00am - - - - - NW 13 19 7 10 1020.6 1020.6 -
26/07:30am - - - - - WNW 9 15 5 8 1020.2 1020.2 -
26/07:00am - - - - - NW 11 13 6 7 1019.7 1019.7 -
26/06:30am - - - - - WNW 7 9 4 5 1019.5 1019.5 -
26/06:00am 10.1 7.1 5.9 75 1.9 WNW 11 15 6 8 1019.1 1019.1 0.0
26/05:30am 10.9 7.8 5.4 69 2.5 WNW 11 15 6 8 1018.7 1018.7 0.0
26/05:00am 10.8 8.5 4.7 66 2.8 WNW 6 7 3 4 1018.4 1018.4 0.0
26/04:30am 10.9 9.1 5.2 68 2.6 W 4 7 2 4 1018.1 1018.1 0.0
26/04:00am 11.4 9.5 4.8 64 3.0 W 4 9 2 5 1017.9 1017.9 0.0
26/03:30am 11.7 9.5 5.1 64 3.0 WNW 6 9 3 5 1017.7 1017.7 0.0
26/03:00am 11.9 9.6 5.5 65 3.0 WNW 7 11 4 6 1017.6 1017.6 0.0
26/02:30am 10.8 7.5 4.7 66 2.8 WNW 11 15 6 8 1017.6 1017.6 0.0
26/02:00am 12.2 9.3 4.7 60 3.4 WNW 9 13 5 7 1017.6 1017.6 0.0
26/01:30am 12.4 10.1 4.9 60 3.5 WNW 6 7 3 4 1017.6 1017.6 0.0
26/01:00am 12.4 9.5 4.9 60 3.5 NW 9 11 5 6 1017.4 1017.4 0.0
26/12:30am 12.3 10.5 5.5 63 3.2 W 4 6 2 3 1017.6 1017.6 0.0
26/12:00am 12.0 10.1 4.7 61 3.3 WNW 4 4 2 2 1017.7 1017.7 0.0
 
Date/Time
EST
Temp
°C
App
Temp
°C
Dew
Point
°C
Rel
Hum
%
Delta-T
°C
Wind Press
QNH
hPa
Press
MSL
hPa
Rain since
9am
mm
Dir  Spd
km/h
Gust
km/h
Spd
kts
Gust
kts
25/11:30pm 12.6 10.7 5.1 60 3.5 W 4 9 2 5 1017.8 1017.8 0.0
25/11:00pm 12.6 9.7 4.6 58 3.7 WSW 9 20 5 11 1017.8 1017.8 0.0
25/10:30pm 12.6 10.2 5.1 60 3.5 W 7 13 4 7 1017.5 1017.5 0.0
25/10:00pm 12.6 10.2 5.1 60 3.5 WNW 7 13 4 7 1017.4 1017.4 0.0
25/09:30pm 12.6 9.6 5.8 63 3.2 WNW 11 17 6 9 1017.0 1017.0 0.0
25/09:00pm 12.7 10.0 5.6 62 3.3 WNW 9 15 5 8 1016.6 1016.6 0.0
25/08:30pm 12.4 9.7 5.6 63 3.2 WNW 9 17 5 9 1016.4 1016.4 0.0
25/08:00pm 12.6 9.5 5.5 62 3.3 WNW 11 19 6 10 1016.3 1016.3 0.0
25/07:30pm 12.6 10.9 5.8 63 3.2 W 4 11 2 6 1016.5 1016.5 0.0
25/07:00pm 12.5 10.0 6.5 67 2.9 NW 9 17 5 9 1016.4 1016.4 0.0
25/06:30pm 11.3 9.0 4.7 64 3.0 N 6 9 3 5 1016.3 1016.3 0.0
25/06:00pm 11.2 9.0 5.1 66 2.8 NE 6 11 3 6 1016.0 1016.0 0.0
25/05:30pm 11.4 9.4 4.6 63 3.1 ENE 4 4 2 2 1015.6 1015.6 0.0
25/05:00pm 12.7 9.8 4.9 59 3.6 ESE 9 11 5 6 1015.3 1015.3 0.0
25/04:30pm 12.9 9.8 3.8 54 4.1 SE 9 13 5 7 1015.0 1015.0 0.0
25/04:00pm 13.5 10.6 4.4 54 4.2 SSE 9 15 5 8 1014.9 1014.9 0.0
25/03:30pm 13.8 10.4 3.9 51 4.5 SSE 11 17 6 9 1014.8 1014.8 0.0
25/03:00pm 13.8 9.6 3.6 50 4.6 S 15 20 8 11 1014.8 1014.8 0.0
25/02:30pm 13.9 9.6 3.1 48 4.8 S 15 22 8 12 1014.8 1014.8 0.0
25/02:00pm 13.9 9.2 3.1 48 4.8 SSW 17 24 9 13 1014.8 1014.8 0.0
25/01:30pm 14.3 9.7 1.6 42 5.5 SW 15 24 8 13 1015.2 1015.2 0.0
25/01:00pm 13.6 9.2 0.6 41 5.5 SW 13 22 7 12 1015.5 1015.5 0.0
25/12:30pm 13.2 8.5 0.6 42 5.3 WSW 15 22 8 12 1015.6 1015.6 0.0
25/12:00pm 12.7 7.8 1.7 47 4.7 SW 17 26 9 14 1016.0 1016.0 0.0
25/11:30am 12.3 7.8 1.9 49 4.5 WSW 15 24 8 13 1016.3 1016.3 0.0
25/11:00am 12.1 8.9 2.8 53 4.1 WSW 9 20 5 11 1016.5 1016.5 0.0
25/10:30am 12.0 8.8 3.0 54 4.0 W 9 20 5 11 1016.7 1016.7 0.0
25/10:00am 11.0 7.7 2.6 56 3.6 WNW 9 15 5 8 1016.8 1016.8 0.0
25/09:30am 10.4 7.6 3.0 60 3.2 W 7 13 4 7 1016.7 1016.7 0.0
25/09:00am 9.9 6.2 2.5 60 3.2 WNW 11 26 6 14 1016.6 1016.6 -
25/08:30am 9.4 6.2 2.9 64 2.8 WNW 9 17 5 9 1016.7 1016.7 -
25/08:00am - - - - - WNW 9 15 5 8 1016.7 1016.7 -
25/07:30am - - - - - WNW 9 19 5 10 1016.7 1016.7 -
25/07:00am - - - - - WNW 11 22 6 12 1016.6 1016.6 -
25/06:30am - - - - - WNW 13 26 7 14 1016.4 1016.4 -
25/06:00am - - - - - WNW 13 26 7 14 1016.2 1016.2 -
25/05:30am - - - - - WNW 9 20 5 11 1016.1 1016.1 -
25/05:00am 8.5 5.1 6.0 84 1.1 NW 13 20 7 11 1016.0 1016.0 0.0
25/04:30am 8.8 6.2 6.1 83 1.2 WNW 9 13 5 7 1016.1 1016.1 0.0
25/04:00am 9.0 6.9 5.7 80 1.5 WNW 6 7 3 4 1016.1 1016.1 0.0
25/03:30am 8.8 5.5 6.4 85 1.1 WNW 13 17 7 9 1016.3 1016.3 0.0
25/03:00am 9.4 7.0 6.8 84 1.2 WNW 9 15 5 8 1016.4 1016.4 0.0
25/02:30am 10.1 6.9 7.0 81 1.5 WNW 13 19 7 10 1016.3 1016.3 0.0
25/02:00am 9.7 6.2 7.1 84 1.2 NW 15 19 8 10 1016.4 1016.4 0.0
25/01:30am 9.6 6.1 7.4 86 1.0 NW 15 19 8 10 1016.5 1016.5 0.0
25/01:00am 9.5 6.6 8.3 92 0.6 NW 13 15 7 8 1016.8 1016.8 0.0
25/12:30am 9.3 6.6 9.0 98 0.1 NW 13 15 7 8 1017.0 1017.0 0.0
25/12:00am 9.7 7.6 9.6 99 0.0 NW 11 13 6 7 1017.2 1017.2 0.0
 
Date/Time
EST
Temp
°C
App
Temp
°C
Dew
Point
°C
Rel
Hum
%
Delta-T
°C
Wind Press
QNH
hPa
Press
MSL
hPa
Rain since
9am
mm
Dir  Spd
km/h
Gust
km/h
Spd
kts
Gust
kts
24/11:30pm 10.1 8.1 10.0 99 0.1 NW 11 13 6 7 1017.3 1017.3 0.0
24/11:00pm 10.2 8.2 10.1 99 0.1 NW 11 13 6 7 1017.5 1017.5 0.0
24/10:30pm 10.9 9.4 10.6 98 0.2 NW 9 13 5 7 1017.5 1017.5 0.0
24/10:00pm 11.3 9.1 9.2 87 1.1 NW 11 15 6 8 1017.5 1017.5 0.0
24/09:30pm 11.8 10.2 7.9 77 1.9 NNW 6 9 3 5 1017.5 1017.5 0.0
24/09:00pm 12.2 11.2 7.3 72 2.4 ESE 2 7 1 4 1017.4 1017.4 0.0

Other Formats:

Comma delimited format used in spreadsheet applications
http://www.bom.gov.au/fwo/IDN60801/IDN60801.95940.axf

JavaScript Object Notation format (JSON) in row-major order
http://www.bom.gov.au/fwo/IDN60801/IDN60801.95940.json